PST,Max TemperatureF,Mean TemperatureF,Min TemperatureF,Max Dew PointF,MeanDew PointF,Min DewpointF,Max Humidity, Mean Humidity, Min Humidity, Max Sea Level PressureIn, Mean Sea Level PressureIn, Min Sea Level PressureIn, Max VisibilityMiles, Mean VisibilityMiles, Min VisibilityMiles, Max Wind SpeedMPH, Mean Wind SpeedMPH, Max Gust SpeedMPH,PrecipitationIn, CloudCover, Events, WindDirDegrees
2012-11-1,79,61,44,43,28,15,65,34,9,29.97,29.92,29.86,10,10,10,23,9,26,0.00,4,,220
2012-11-2,74,56,40,44,39,31,84,58,24,30.01,29.95,29.90,10,10,10,12,5,,0.00,3,,236
2012-11-3,78,58,40,34,27,17,67,38,12,30.12,30.06,29.99,10,10,10,7,2,,0.00,1,,13
2012-11-4,80,59,38,24,20,13,40,25,12,30.23,30.16,30.12,10,10,10,8,4,,0.00,0,,316
2012-11-5,82,62,41,27,20,14,36,23,12,30.23,30.15,30.08,10,10,10,6,2,,0.00,0,,259
2012-11-6,82,62,41,32,25,14,39,28,15,30.17,30.08,30.01,10,10,10,10,3,,0.00,0,,247
2012-11-7,84,63,42,42,31,20,54,34,13,30.07,29.97,29.87,10,10,10,18,6,23,0.00,0,,237
2012-11-8,65,58,51,50,46,39,84,66,42,29.92,29.83,29.78,10,10,10,29,17,34,0.00,5,Rain,239
2012-11-9,55,46,38,42,29,20,80,48,24,29.91,29.84,29.78,10,10,10,24,16,37,0.00,2,,252
2012-11-10,50,40,30,31,23,15,83,49,32,30.15,30.03,29.89,10,10,10,24,14,32,0.00,1,,259
2012-11-11,54,38,23,18,13,6,55,33,22,30.41,30.34,30.19,10,10,10,14,5,,0.00,0,,29
2012-11-12,59,41,23,10,5,-2,39,25,13,30.44,30.34,30.24,10,10,10,7,4,,0.00,0,,50
2012-11-13,63,43,23,8,1,-4,35,21,9,30.32,30.23,30.15,10,10,10,7,4,,0.00,0,,240
2012-11-14,66,45,24,11,3,-6,29,20,10,30.25,30.16,30.06,10,10,10,6,3,,0.00,4,,254
2012-11-15,61,48,36,39,18,4,71,33,14,30.17,30.10,30.06,20,12,10,7,3,,0.00,6,Rain,208
2012-11-16,64,54,45,46,40,34,77,57,42,30.10,30.05,29.99,10,10,10,15,5,,0.00,6,Rain,181
2012-11-17,64,56,49,52,47,44,88,74,52,30.05,30.02,29.97,20,11,10,20,7,26,0.00,5,,228
2012-11-18,64,55,46,50,45,43,100,71,45,30.14,30.09,30.05,10,10,10,18,11,30,0.00,1,,230
2012-11-19,66,53,40,49,40,32,100,67,35,30.24,30.18,30.12,10,10,10,9,6,,0.00,0,,207
2012-11-20,67,50,34,40,33,28,87,57,32,30.21,30.13,30.04,10,10,10,8,4,,0.00,2,,231
2012-11-21,71,55,39,42,37,30,75,51,23,30.10,30.04,29.97,10,10,10,26,11,31,0.00,4,,239
2012-11-22,70,54,38,42,35,23,88,56,28,30.23,30.15,30.04,10,10,10,8,4,,0.00,0,,4
2012-11-23,72,53,34,29,23,18,61,37,18,30.31,30.23,30.17,10,10,10,8,3,,0.00,0,,338
2012-11-24,71,52,32,24,19,12,49,33,16,30.24,30.12,30.01,10,10,10,7,3,,0.00,0,,272
2012-11-25,77,54,32,34,21,10,47,33,15,30.01,29.95,29.84,10,10,10,16,3,21,0.00,1,,236
2012-11-26,70,51,32,25,20,14,52,34,18,30.14,30.06,29.97,10,10,10,6,2,,0.00,2,,289
2012-11-27,66,49,32,27,19,11,43,34,22,30.22,30.13,30.07,10,10,10,8,2,,0.00,4,,262
2012-11-28,69,51,33,52,33,13,100,51,28,30.16,30.10,30.04,20,13,10,29,8,37,0.00,5,Rain,240
2012-11-29,64,57,50,56,51,47,100,90,51,30.16,30.12,30.07,10,9,4,29,9,36,0.00,6,Rain,207
2012-11-30,64,59,53,57,53,48,100,83,59,30.09,30.05,30.02,10,10,10,25,16,32,0.00,5,,236